Milk River, Canada
Current Conditions -  °F | °C
As of 3:56 AM on Monday 22 Dec 2014 (Local Time) from KCTB Reporting Station
Clear Clear  
Wind Chill: 21°   Ceiling: Unl
Heat Index: 32°   Visibility: 10mi
Dew Point: 21°   Wind: 17mph
Humidity: 64%   Direction: 290°WNW
Pressure: 29.72"   Gusts: NA
Location:  49.15°N, 112.09°W
Report Text: KCTB 221056Z AUTO 29015KT 10SM CLR 00/M06 A2972 RMK AO2 SLP083 T00001061
Loading
Personal Weather Stations






























Interactive Weather Map New forecast layout! Learn more

10-Day Weather Forecast

Advertisements
Track Severe Weather on mobile